QFA619 YSSY-RKSI
Flight info
| Callsign | QFA619 |
|---|---|
| Flight time | N/A |
| Altitude | 34000 |
| Route | RIC H530 KABIX Q147 VOMPA Q499 NONUM DCT KIMMI R204 ABLOK/N0500F360 R204 KALIN DCT 04N141E 10N139E 13N138E/N0492F380 18N136E DCT KEITH/N0494F370 A339 SABGU/N0491F380 G339 LUKRA Y208 INVOK Z91 PSN Y782 BITUX Z53 BASEM Y685 GUKDO GUKDO2E |
| Aircraft | A35K/H-SDE2E3GHIJ3J4J5LM1ORWXY/LB1D1 |
Departure
| Time | 2026-04-30 08:44 |
|---|---|
| Airport | Sydney Kingsford Smith International Airport (YSSY) |
Arrival
| Time | N/A |
|---|---|
| Airport | Incheon International Airport (RKSI) |
| Time | Latitude | Longitude | Altitude | Speed | Heading |
|---|---|---|---|---|---|
| 2026-04-30 07:10 | -33.93624 | 151.16922 | 36 ft | 0 kts | 178° |
| 2026-04-30 08:29 | -33.93621 | 151.16922 | 9 ft | 3 kts | 178° |
| 2026-04-30 08:30 | -33.93598 | 151.16921 | 34 ft | 3 kts | 178° |
| 2026-04-30 08:30 | -33.93575 | 151.16920 | 35 ft | 3 kts | 178° |
| 2026-04-30 08:30 | -33.93552 | 151.16919 | 34 ft | 3 kts | 178° |
| 2026-04-30 08:30 | -33.93529 | 151.16918 | 35 ft | 3 kts | 179° |
| 2026-04-30 08:31 | -33.93507 | 151.16917 | 35 ft | 3 kts | 179° |
| 2026-04-30 08:31 | -33.93484 | 151.16916 | 34 ft | 3 kts | 172° |
| 2026-04-30 08:31 | -33.93462 | 151.16911 | 35 ft | 3 kts | 167° |
| 2026-04-30 08:31 | -33.93443 | 151.16906 | 34 ft | 0 kts | 167° |
| 2026-04-30 08:34 | -33.93444 | 151.16906 | 34 ft | 1 kts | 167° |
| 2026-04-30 08:34 | -33.93464 | 151.16912 | 35 ft | 5 kts | 166° |
| 2026-04-30 08:34 | -33.93505 | 151.16943 | 35 ft | 8 kts | 122° |
| 2026-04-30 08:35 | -33.93504 | 151.17020 | 36 ft | 11 kts | 80° |
| 2026-04-30 08:35 | -33.93529 | 151.17105 | 35 ft | 15 kts | 148° |
| 2026-04-30 08:35 | -33.93654 | 151.17143 | 35 ft | 20 kts | 167° |
| 2026-04-30 08:35 | -33.93794 | 151.17180 | 34 ft | 21 kts | 169° |
| 2026-04-30 08:36 | -33.93938 | 151.17217 | 35 ft | 22 kts | 168° |
| 2026-04-30 08:36 | -33.94087 | 151.17256 | 35 ft | 22 kts | 167° |
| 2026-04-30 08:36 | -33.94241 | 151.17296 | 35 ft | 23 kts | 168° |
| 2026-04-30 08:36 | -33.94396 | 151.17336 | 36 ft | 23 kts | 168° |
| 2026-04-30 08:37 | -33.94551 | 151.17376 | 36 ft | 24 kts | 168° |
| 2026-04-30 08:37 | -33.94714 | 151.17418 | 36 ft | 24 kts | 168° |
| 2026-04-30 08:37 | -33.94883 | 151.17461 | 35 ft | 25 kts | 167° |
| 2026-04-30 08:37 | -33.95056 | 151.17508 | 35 ft | 26 kts | 167° |
| 2026-04-30 08:38 | -33.95233 | 151.17556 | 35 ft | 27 kts | 167° |
| 2026-04-30 08:38 | -33.95368 | 151.17589 | 35 ft | 16 kts | 169° |
| 2026-04-30 08:38 | -33.95484 | 151.17617 | 35 ft | 17 kts | 168° |
| 2026-04-30 08:38 | -33.95606 | 151.17649 | 36 ft | 19 kts | 168° |
| 2026-04-30 08:39 | -33.95737 | 151.17683 | 36 ft | 20 kts | 168° |
| 2026-04-30 08:39 | -33.95876 | 151.17719 | 36 ft | 21 kts | 168° |
| 2026-04-30 08:39 | -33.96024 | 151.17758 | 36 ft | 22 kts | 168° |
| 2026-04-30 08:39 | -33.96178 | 151.17798 | 36 ft | 23 kts | 168° |
| 2026-04-30 08:40 | -33.96313 | 151.17833 | 36 ft | 6 kts | 167° |
| 2026-04-30 08:40 | -33.96334 | 151.17839 | 36 ft | 10 kts | 168° |
| 2026-04-30 08:40 | -33.96409 | 151.17866 | 36 ft | 12 kts | 149° |
| 2026-04-30 08:40 | -33.96432 | 151.17911 | 36 ft | 0 kts | 99° |
| 2026-04-30 08:41 | -33.96433 | 151.17923 | 36 ft | 4 kts | 95° |
| 2026-04-30 08:41 | -33.96428 | 151.17980 | 35 ft | 8 kts | 79° |
| 2026-04-30 08:42 | -33.96400 | 151.18040 | 35 ft | 9 kts | 34° |
| 2026-04-30 08:42 | -33.96343 | 151.18041 | 35 ft | 0 kts | 349° |
| 2026-04-30 08:42 | -33.96342 | 151.18041 | 35 ft | 1 kts | 349° |
| 2026-04-30 08:43 | -33.96278 | 151.18026 | 35 ft | 30 kts | 349° |
| 2026-04-30 08:43 | -33.95835 | 151.17911 | 34 ft | 98 kts | 348° |
| 2026-04-30 08:43 | -33.94967 | 151.17686 | 34 ft | 156 kts | 348° |
| 2026-04-30 08:43 | -33.93793 | 151.17367 | 418 ft | 173 kts | 349° |
| 2026-04-30 08:44 | -33.92672 | 151.17047 | 1336 ft | 160 kts | 351° |
| 2026-04-30 08:44 | -33.91616 | 151.16710 | 1975 ft | 161 kts | 344° |
| 2026-04-30 08:44 | -33.90670 | 151.15896 | 2304 ft | 175 kts | 316° |
| 2026-04-30 08:44 | -33.89866 | 151.14719 | 2615 ft | 191 kts | 310° |
| 2026-04-30 08:45 | -33.89020 | 151.13396 | 2910 ft | 207 kts | 312° |
| 2026-04-30 08:45 | -33.88054 | 151.12029 | 3241 ft | 220 kts | 315° |
| 2026-04-30 08:45 | -33.86982 | 151.10624 | 3560 ft | 235 kts | 316° |
| 2026-04-30 08:45 | -33.85820 | 151.09162 | 3920 ft | 249 kts | 317° |
| 2026-04-30 08:46 | -33.84569 | 151.07622 | 4313 ft | 264 kts | 317° |
| 2026-04-30 08:46 | -33.83285 | 151.06053 | 4944 ft | 268 kts | 316° |
| 2026-04-30 08:46 | -33.81967 | 151.04452 | 5629 ft | 272 kts | 316° |
| 2026-04-30 08:46 | -33.80625 | 151.02827 | 6523 ft | 275 kts | 316° |
| 2026-04-30 08:47 | -33.79268 | 151.01186 | 7451 ft | 278 kts | 316° |
| 2026-04-30 08:47 | -33.77893 | 150.99527 | 8370 ft | 281 kts | 316° |
| 2026-04-30 08:47 | -33.76504 | 150.97850 | 9316 ft | 284 kts | 316° |
| 2026-04-30 08:47 | -33.75102 | 150.96161 | 10217 ft | 288 kts | 316° |